Time;durP1;ratioP1;P1;durP2;ratioP2;P2;SDS_P1;SDS_P2;PMS_P1;PMS_P2;Temp;Humidity;BMP_temperature;BMP_pressure;BME280_temperature;BME280_humidity;BME280_pressure;Samples;Min_cycle;Max_cycle;Signal;HPM_P1;HPM_P2
2021/05/27 00:00:44;;;;;;;1.75;1.27;;;10.20;95.20;;;;;;2081239;28;20080;-70
2021/05/27 00:01:44;;;;;;;0.98;0.98;;;10.20;95.30;;;;;;2081426;28;20036;-70
2021/05/27 00:02:45;;;;;;;1.20;1.10;;;10.20;95.30;;;;;;2072571;28;20461;-70
2021/05/27 00:03:47;;;;;;;1.10;1.10;;;10.20;95.30;;;;;;2073038;28;20113;-69
2021/05/27 00:04:48;;;;;;;1.20;1.10;;;10.20;95.40;;;;;;2089817;28;20025;-70
2021/05/27 00:05:48;;;;;;;1.27;1.17;;;10.20;95.30;;;;;;2089907;28;20029;-70
2021/05/27 00:06:49;;;;;;;1.40;1.30;;;10.20;95.20;;;;;;2089027;28;20041;-69
2021/05/27 00:07:50;;;;;;;1.30;1.20;;;10.10;95.10;;;;;;2089704;28;20037;-69
2021/05/27 00:08:51;;;;;;;1.35;1.10;;;10.20;95.10;;;;;;2089850;28;20484;-69
2021/05/27 00:09:52;;;;;;;1.83;1.10;;;10.20;95.10;;;;;;2089980;28;20025;-69
2021/05/27 00:10:52;;;;;;;1.15;1.10;;;10.10;95.10;;;;;;2089750;28;20055;-69
2021/05/27 00:11:53;;;;;;;1.60;1.10;;;10.10;95.10;;;;;;2089745;28;20029;-68
2021/05/27 00:12:55;;;;;;;1.02;1.02;;;10.10;95.10;;;;;;2089698;28;20041;-69
2021/05/27 00:13:55;;;;;;;1.52;1.25;;;10.10;95.30;;;;;;2089837;28;20104;-68
2021/05/27 00:14:56;;;;;;;1.20;1.10;;;10.10;95.50;;;;;;2089878;28;20025;-69
2021/05/27 00:15:58;;;;;;;1.20;1.10;;;10.10;95.40;;;;;;2080764;28;20026;-69
2021/05/27 00:16:59;;;;;;;1.40;1.30;;;10.10;95.50;;;;;;2080630;28;20039;-68
2021/05/27 00:18:00;;;;;;;1.40;1.30;;;10.10;95.50;;;;;;2080881;28;20672;-68
2021/05/27 00:19:00;;;;;;;1.67;1.40;;;10.10;95.40;;;;;;2072715;28;20042;-69
2021/05/27 00:20:03;;;;;;;2.08;1.30;;;10.10;95.50;;;;;;2080824;28;20029;-69
2021/05/27 00:21:04;;;;;;;1.35;1.25;;;10.20;95.50;;;;;;2088996;28;20029;-69
2021/05/27 00:22:04;;;;;;;1.60;1.30;;;10.20;95.50;;;;;;2089022;28;20689;-69
2021/05/27 00:23:05;;;;;;;1.45;1.25;;;10.20;95.50;;;;;;2089586;28;20029;-68
2021/05/27 00:24:07;;;;;;;1.48;1.35;;;10.20;95.60;;;;;;2089638;28;20025;-69
2021/05/27 00:25:09;;;;;;;1.45;1.35;;;10.20;95.50;;;;;;2089729;28;20033;-68
2021/05/27 00:26:10;;;;;;;1.50;1.40;;;10.20;95.70;;;;;;2079873;28;20048;-69
2021/05/27 00:27:11;;;;;;;1.40;1.30;;;10.20;95.40;;;;;;2080794;28;20061;-69
2021/05/27 00:28:12;;;;;;;1.40;1.30;;;10.20;95.40;;;;;;2080915;28;20041;-69
2021/05/27 00:29:12;;;;;;;1.30;1.20;;;10.20;95.20;;;;;;2089664;28;20025;-68
2021/05/27 00:30:14;;;;;;;2.03;1.45;;;10.20;95.00;;;;;;2089830;28;20087;-69
2021/05/27 00:31:15;;;;;;;1.52;1.42;;;10.30;95.20;;;;;;2080895;28;20025;-69
2021/05/27 00:32:15;;;;;;;1.90;1.60;;;10.30;95.20;;;;;;2080688;28;20033;-69
2021/05/27 00:33:16;;;;;;;1.95;1.60;;;10.20;94.80;;;;;;2072505;28;20022;-69
2021/05/27 00:34:17;;;;;;;1.50;1.40;;;10.20;95.00;;;;;;2080824;28;20021;-69
2021/05/27 00:35:18;;;;;;;1.92;1.70;;;10.20;95.00;;;;;;2080792;28;20041;-69
2021/05/27 00:36:18;;;;;;;2.10;1.80;;;10.10;95.20;;;;;;2079845;28;20100;-69
2021/05/27 00:37:19;;;;;;;1.60;1.40;;;10.10;95.00;;;;;;2082614;28;20108;-69
2021/05/27 00:38:20;;;;;;;1.83;1.70;;;10.10;95.00;;;;;;2080654;28;20064;-70
2021/05/27 00:39:20;;;;;;;2.45;1.80;;;10.10;95.10;;;;;;2086003;28;20025;-69
2021/05/27 00:40:21;;;;;;;1.70;1.60;;;10.00;95.20;;;;;;2089569;28;20112;-69
2021/05/27 00:41:22;;;;;;;1.92;1.73;;;10.00;95.20;;;;;;2089466;28;20036;-69
2021/05/27 00:42:22;;;;;;;1.60;1.50;;;10.00;95.10;;;;;;2080633;28;20056;-69
2021/05/27 00:43:23;;;;;;;1.83;1.73;;;10.00;95.20;;;;;;2080597;28;20075;-68
2021/05/27 00:44:29;;;;;;;1.70;1.60;;;10.00;95.40;;;;;;2080831;28;20041;-69
2021/05/27 00:45:30;;;;;;;1.83;1.73;;;10.00;95.30;;;;;;2089214;28;20025;-69
2021/05/27 00:46:31;;;;;;;1.63;1.52;;;10.00;95.60;;;;;;2079759;28;20111;-69
2021/05/27 00:47:32;;;;;;;1.65;1.55;;;9.90;95.60;;;;;;2080735;28;20029;-69
2021/05/27 00:49:52;;;;;;;2.08;1.80;;;9.90;95.50;;;;;;2089457;28;20112;-69
2021/05/27 00:50:53;;;;;;;1.88;1.77;;;9.90;95.50;;;;;;2080443;28;20025;-69
2021/05/27 00:51:54;;;;;;;1.98;1.80;;;9.90;95.50;;;;;;2080596;28;20029;-69
2021/05/27 00:52:57;;;;;;;1.70;1.60;;;9.80;95.50;;;;;;2080248;28;20031;-69
2021/05/27 00:53:58;;;;;;;1.70;1.60;;;9.80;95.50;;;;;;2080497;28;20122;-69
2021/05/27 00:55:02;;;;;;;1.80;1.70;;;9.80;95.50;;;;;;2080601;28;20029;-69
2021/05/27 00:56:03;;;;;;;1.60;1.50;;;9.80;95.50;;;;;;2079883;28;20401;-69
2021/05/27 00:57:12;;;;;;;1.70;1.60;;;9.80;95.60;;;;;;2080425;28;20026;-69
2021/05/27 00:58:13;;;;;;;1.70;1.60;;;9.80;95.60;;;;;;2080631;28;20029;-69
2021/05/27 00:59:15;;;;;;;1.95;1.75;;;9.70;95.70;;;;;;2072589;28;20120;-69
2021/05/27 01:00:18;;;;;;;1.70;1.60;;;9.70;95.80;;;;;;2080582;28;20137;-69
2021/05/27 01:01:19;;;;;;;2.10;1.90;;;9.70;95.80;;;;;;2080971;28;20032;-69
2021/05/27 01:02:20;;;;;;;1.98;1.77;;;9.70;96.10;;;;;;2080215;28;20116;-69
2021/05/27 01:03:21;;;;;;;1.80;1.70;;;9.70;96.20;;;;;;2072193;28;20044;-69
2021/05/27 01:04:21;;;;;;;1.83;1.67;;;9.60;96.20;;;;;;2080453;28;20025;-69
2021/05/27 01:05:22;;;;;;;2.58;1.80;;;9.60;96.30;;;;;;2080344;28;20476;-69
2021/05/27 01:06:23;;;;;;;2.08;1.90;;;9.60;96.30;;;;;;2079685;28;20478;-69
2021/05/27 01:07:24;;;;;;;2.35;1.90;;;9.60;96.50;;;;;;2089230;28;20029;-69
2021/05/27 01:08:25;;;;;;;1.92;1.70;;;9.50;96.40;;;;;;2072173;28;20029;-69
2021/05/27 01:09:25;;;;;;;1.95;1.80;;;9.50;96.50;;;;;;2067159;28;20049;-69
2021/05/27 01:10:26;;;;;;;2.22;1.90;;;9.50;96.50;;;;;;2064226;28;20015;-69
2021/05/27 01:11:26;;;;;;;2.58;1.90;;;9.50;96.60;;;;;;2072316;28;20026;-69
2021/05/27 01:12:27;;;;;;;2.30;1.90;;;9.50;96.80;;;;;;2071966;28;20140;-69
2021/05/27 01:13:28;;;;;;;2.25;1.73;;;9.50;96.80;;;;;;2064161;28;20064;-69
2021/05/27 01:15:48;;;;;;;2.20;2.00;;;9.40;97.00;;;;;;2081086;28;20056;-69
2021/05/27 01:16:49;;;;;;;2.10;2.00;;;9.40;97.00;;;;;;2071431;28;20072;-69
2021/05/27 01:17:49;;;;;;;1.90;1.80;;;9.30;97.00;;;;;;2072237;28;20096;-69
2021/05/27 01:18:53;;;;;;;2.00;1.90;;;9.30;97.10;;;;;;2072100;28;20084;-69
2021/05/27 01:19:56;;;;;;;2.28;2.08;;;9.30;97.10;;;;;;2072093;28;20034;-69
2021/05/27 01:20:58;;;;;;;2.00;1.90;;;9.30;97.20;;;;;;2072133;28;20038;-69
2021/05/27 01:21:59;;;;;;;2.20;2.00;;;9.30;97.30;;;;;;2080873;28;20029;-69
2021/05/27 01:23:00;;;;;;;2.30;2.10;;;9.30;97.30;;;;;;2080797;28;20040;-69
2021/05/27 01:24:01;;;;;;;2.20;2.00;;;9.30;97.30;;;;;;2072214;28;20030;-69
2021/05/27 01:25:06;;;;;;;2.80;2.50;;;9.30;97.40;;;;;;2072587;28;20089;-69
2021/05/27 01:26:12;;;;;;;2.28;2.08;;;9.20;97.40;;;;;;2080072;28;20029;-70
2021/05/27 01:27:13;;;;;;;2.65;2.45;;;9.30;97.50;;;;;;2081281;28;20036;-69
2021/05/27 01:28:15;;;;;;;3.35;2.40;;;9.30;97.50;;;;;;2080980;28;20108;-69
2021/05/27 01:29:16;;;;;;;2.60;2.40;;;9.30;97.50;;;;;;2080782;28;20033;-69
2021/05/27 01:30:17;;;;;;;2.30;2.10;;;9.20;97.50;;;;;;2080875;28;20096;-69
2021/05/27 01:31:18;;;;;;;2.53;2.33;;;9.30;97.50;;;;;;2070457;28;20029;-69
2021/05/27 01:32:20;;;;;;;2.40;2.20;;;9.30;97.60;;;;;;2072060;28;20018;-69
2021/05/27 01:33:22;;;;;;;3.15;2.20;;;9.20;97.50;;;;;;2071767;28;20057;-69
2021/05/27 01:34:22;;;;;;;2.35;2.10;;;9.20;97.60;;;;;;2072106;28;20032;-68
2021/05/27 01:35:25;;;;;;;2.28;2.08;;;9.20;97.60;;;;;;2080105;28;20076;-69
2021/05/27 01:36:27;;;;;;;2.40;2.20;;;9.20;97.60;;;;;;2079682;28;20057;-69
2021/05/27 01:37:28;;;;;;;2.47;2.00;;;9.20;97.70;;;;;;2082557;28;20029;-68
2021/05/27 01:38:31;;;;;;;2.50;2.20;;;9.20;97.80;;;;;;2071837;28;20051;-69
2021/05/27 01:39:32;;;;;;;2.78;2.08;;;9.20;97.80;;;;;;2074465;28;20026;-69
2021/05/27 01:40:32;;;;;;;2.50;2.30;;;9.10;97.80;;;;;;2080080;28;20021;-69
2021/05/27 01:41:33;;;;;;;2.28;2.08;;;9.20;97.90;;;;;;2079939;28;20107;-69
2021/05/27 01:42:34;;;;;;;2.53;2.30;;;9.20;97.90;;;;;;2071097;28;20022;-69
2021/05/27 01:43:35;;;;;;;2.53;2.30;;;9.10;97.90;;;;;;2079858;28;20029;-69
2021/05/27 01:44:35;;;;;;;2.60;2.40;;;9.10;98.00;;;;;;2088413;28;20447;-69
2021/05/27 01:45:37;;;;;;;3.15;2.60;;;9.10;98.10;;;;;;2088398;28;20087;-69
2021/05/27 01:46:38;;;;;;;2.60;2.40;;;9.10;98.10;;;;;;2088156;28;20049;-69
2021/05/27 01:47:41;;;;;;;2.70;2.50;;;9.10;98.10;;;;;;2078491;28;20117;-68
2021/05/27 01:48:43;;;;;;;2.70;2.30;;;9.10;98.10;;;;;;2070698;28;20034;-68
2021/05/27 01:49:45;;;;;;;4.07;2.30;;;9.10;98.20;;;;;;2080101;28;20437;-69
2021/05/27 01:50:49;;;;;;;2.80;2.30;;;9.10;98.20;;;;;;2079683;28;20053;-69
2021/05/27 01:51:54;;;;;;;3.20;2.50;;;9.00;98.10;;;;;;2072319;28;20034;-69
2021/05/27 01:53:01;;;;;;;2.30;2.10;;;9.00;98.20;;;;;;2079898;28;20076;-69
2021/05/27 01:54:03;;;;;;;2.70;2.50;;;9.00;98.30;;;;;;2079982;28;20096;-69
2021/05/27 01:55:06;;;;;;;3.03;2.72;;;9.00;98.30;;;;;;2079918;28;20032;-68
2021/05/27 01:56:07;;;;;;;2.67;2.47;;;9.00;98.40;;;;;;2079284;28;20030;-69
2021/05/27 01:57:07;;;;;;;2.63;2.42;;;9.00;98.40;;;;;;2088712;28;20059;-69
2021/05/27 01:58:09;;;;;;;2.80;2.60;;;9.00;98.50;;;;;;2079898;28;20471;-69
2021/05/27 01:59:10;;;;;;;2.95;2.65;;;9.00;98.40;;;;;;2079829;28;20029;-68
2021/05/27 02:00:16;;;;;;;2.80;2.58;;;9.00;98.40;;;;;;2079867;28;20030;-69
2021/05/27 02:01:43;;;;;;;2.75;2.50;;;9.00;98.30;;;;;;2083961;28;20111;-69
2021/05/27 02:02:45;;;;;;;3.13;2.53;;;9.00;98.40;;;;;;2088567;28;20041;-68
2021/05/27 02:03:45;;;;;;;4.10;2.80;;;9.00;98.40;;;;;;2079872;28;20033;-69
2021/05/27 02:04:53;;;;;;;2.70;2.50;;;9.00;98.40;;;;;;2080215;28;20029;-68
2021/05/27 02:05:54;;;;;;;3.38;2.60;;;9.00;98.50;;;;;;2088014;28;20033;-69
2021/05/27 02:06:55;;;;;;;3.38;3.08;;;9.00;98.40;;;;;;2087527;28;20036;-68
2021/05/27 02:07:56;;;;;;;2.80;2.60;;;9.00;98.40;;;;;;2088680;28;20029;-69
2021/05/27 02:10:13;;;;;;;2.90;2.60;;;9.00;98.40;;;;;;2080657;28;20071;-69
2021/05/27 02:11:14;;;;;;;4.05;2.95;;;9.00;98.30;;;;;;2087953;28;20059;-69
2021/05/27 02:12:14;;;;;;;3.40;3.10;;;9.00;98.30;;;;;;2088702;28;20032;-69
2021/05/27 02:13:15;;;;;;;3.15;2.85;;;8.90;98.10;;;;;;2079691;28;20033;-68
2021/05/27 02:14:22;;;;;;;3.30;3.00;;;8.90;98.10;;;;;;2080083;28;20026;-69
2021/05/27 02:15:23;;;;;;;3.70;2.90;;;8.90;98.10;;;;;;2088690;28;20024;-69
2021/05/27 02:16:23;;;;;;;3.72;2.90;;;8.90;98.10;;;;;;2087901;28;20063;-69
2021/05/27 02:17:25;;;;;;;3.22;2.92;;;8.90;98.20;;;;;;2088736;28;20017;-68
2021/05/27 02:18:27;;;;;;;3.70;2.97;;;8.90;98.20;;;;;;2080078;28;20010;-69
2021/05/27 02:19:30;;;;;;;3.85;3.30;;;8.90;98.20;;;;;;2079678;28;20017;-68
2021/05/27 02:20:31;;;;;;;3.15;2.90;;;8.90;98.10;;;;;;2087983;28;20608;-70
2021/05/27 02:21:32;;;;;;;3.50;3.20;;;8.80;98.10;;;;;;2079739;28;20022;-69
2021/05/27 02:22:33;;;;;;;3.55;3.10;;;8.80;98.10;;;;;;2079871;28;20017;-68
2021/05/27 02:24:04;;;;;;;3.55;3.10;;;8.80;98.10;;;;;;2084467;28;20107;-68
2021/05/27 02:25:07;;;;;;;3.30;3.00;;;8.80;98.10;;;;;;2079871;28;20029;-68
2021/05/27 02:26:09;;;;;;;3.42;3.13;;;8.80;98.10;;;;;;2071417;28;20033;-69
2021/05/27 02:27:36;;;;;;;3.97;3.38;;;8.80;98.10;;;;;;2081408;28;20029;-68
2021/05/27 02:28:37;;;;;;;4.25;3.47;;;8.80;98.00;;;;;;2079847;28;20060;-68
2021/05/27 02:29:38;;;;;;;5.00;3.30;;;8.80;98.00;;;;;;2079967;28;20040;-68
2021/05/27 02:30:43;;;;;;;3.90;3.50;;;8.80;98.10;;;;;;2080121;28;20412;-69
2021/05/27 02:31:47;;;;;;;4.25;3.50;;;8.80;98.00;;;;;;2080046;28;20377;-68
2021/05/27 02:32:52;;;;;;;3.90;3.47;;;8.80;98.00;;;;;;2079654;28;20058;-69
2021/05/27 02:33:53;;;;;;;3.92;3.53;;;8.80;97.90;;;;;;2071564;28;20030;-69
2021/05/27 02:34:57;;;;;;;4.15;3.53;;;8.80;98.00;;;;;;2079661;28;20531;-68
2021/05/27 02:36:01;;;;;;;3.63;3.22;;;8.80;98.00;;;;;;2079771;28;20108;-68
2021/05/27 02:37:02;;;;;;;4.38;3.35;;;8.80;98.00;;;;;;2087315;28;20020;-69
2021/05/27 02:38:09;;;;;;;3.78;3.47;;;8.80;98.10;;;;;;2071478;28;20026;-68
2021/05/27 02:39:13;;;;;;;5.32;3.78;;;8.70;98.20;;;;;;2063743;28;20061;-67
2021/05/27 02:40:18;;;;;;;4.70;3.80;;;8.70;98.00;;;;;;2073208;28;20096;-67
2021/05/27 02:41:20;;;;;;;4.03;3.53;;;8.70;98.00;;;;;;2079636;28;20041;-68
2021/05/27 02:42:23;;;;;;;5.20;4.22;;;8.70;98.00;;;;;;2071820;28;20029;-67
2021/05/27 02:43:28;;;;;;;5.00;4.50;;;8.70;97.80;;;;;;2071720;28;20017;-67
2021/05/27 02:44:29;;;;;;;5.65;4.95;;;8.70;97.70;;;;;;2071923;28;20041;-68
2021/05/27 02:45:32;;;;;;;5.45;4.80;;;8.80;97.50;;;;;;2080030;28;20029;-67
2021/05/27 02:46:34;;;;;;;5.25;4.40;;;8.80;97.50;;;;;;2078955;28;20025;-69
2021/05/27 02:47:36;;;;;;;4.82;4.38;;;8.80;97.50;;;;;;2071674;28;20072;-67
2021/05/27 02:48:38;;;;;;;6.00;4.90;;;8.70;97.40;;;;;;2079842;28;20040;-68
2021/05/27 02:49:40;;;;;;;6.80;4.97;;;8.80;97.20;;;;;;2088482;28;20385;-67
2021/05/27 02:50:41;;;;;;;5.90;4.82;;;8.80;97.00;;;;;;2087846;28;20048;-68
2021/05/27 02:51:44;;;;;;;5.68;5.00;;;8.80;96.90;;;;;;2079723;28;20022;-68
2021/05/27 02:52:46;;;;;;;4.90;4.50;;;8.80;96.90;;;;;;2071611;28;20485;-69
2021/05/27 02:53:48;;;;;;;5.00;4.50;;;8.80;96.80;;;;;;2080021;28;20032;-69
2021/05/27 02:54:52;;;;;;;4.40;4.00;;;8.80;96.80;;;;;;2079719;28;20454;-68
2021/05/27 02:55:55;;;;;;;7.40;5.28;;;8.80;96.80;;;;;;2071705;28;20041;-68
2021/05/27 02:56:59;;;;;;;6.75;5.38;;;8.80;96.40;;;;;;2071282;28;20022;-68
2021/05/27 02:58:00;;;;;;;6.70;5.53;;;8.80;96.00;;;;;;2080079;28;20582;-68
2021/05/27 02:59:01;;;;;;;5.68;5.07;;;8.90;95.90;;;;;;2088664;28;20400;-68
2021/05/27 03:00:05;;;;;;;5.45;4.82;;;8.90;96.00;;;;;;2079761;28;20098;-67
2021/05/27 03:01:22;;;;;;;6.97;5.70;;;8.90;95.80;;;;;;2074010;28;20469;-68
2021/05/27 03:02:27;;;;;;;5.70;5.20;;;9.00;95.30;;;;;;2080256;28;20061;-68
2021/05/27 03:03:27;;;;;;;5.78;5.07;;;9.00;94.80;;;;;;2079696;28;20021;-68
2021/05/27 03:04:31;;;;;;;5.70;5.10;;;9.10;94.80;;;;;;2071910;28;20030;-68
2021/05/27 03:05:34;;;;;;;5.05;4.55;;;9.20;94.80;;;;;;2071579;28;20029;-68
2021/05/27 03:06:36;;;;;;;4.47;4.07;;;9.20;94.70;;;;;;2070738;28;20467;-69
2021/05/27 03:07:36;;;;;;;6.05;4.88;;;9.20;94.60;;;;;;2073990;28;20033;-69
2021/05/27 03:08:40;;;;;;;5.57;4.80;;;9.30;94.50;;;;;;2071454;28;20032;-69
2021/05/27 03:09:42;;;;;;;5.47;4.82;;;9.40;94.40;;;;;;2073826;28;20455;-69
2021/05/27 03:10:44;;;;;;;5.35;4.70;;;9.40;94.20;;;;;;2079832;28;20031;-69
2021/05/27 03:11:46;;;;;;;5.20;4.70;;;9.40;93.90;;;;;;2079520;28;20042;-69
2021/05/27 03:12:47;;;;;;;5.15;4.65;;;9.50;93.50;;;;;;2079568;28;20029;-68
2021/05/27 03:13:48;;;;;;;5.80;4.80;;;9.50;93.50;;;;;;2071342;28;20026;-69
2021/05/27 03:14:51;;;;;;;5.35;4.85;;;9.60;93.10;;;;;;2080205;28;20048;-69
2021/05/27 03:16:00;;;;;;;6.40;5.28;;;9.60;93.10;;;;;;2079210;28;20041;-69
2021/05/27 03:17:03;;;;;;;5.93;5.32;;;9.60;92.80;;;;;;2080520;28;20018;-68
2021/05/27 03:18:06;;;;;;;7.72;5.78;;;9.60;92.80;;;;;;2081289;28;20064;-70
2021/05/27 03:19:07;;;;;;;7.10;5.20;;;9.70;92.40;;;;;;2073450;28;20065;-69
2021/05/27 03:20:09;;;;;;;5.95;5.35;;;9.60;92.40;;;;;;2073105;28;20440;-69
2021/05/27 03:21:10;;;;;;;6.25;5.30;;;9.60;92.20;;;;;;2073177;28;20381;-69
2021/05/27 03:22:12;;;;;;;6.03;5.20;;;9.60;92.50;;;;;;2073084;28;20030;-69
2021/05/27 03:23:14;;;;;;;6.45;5.25;;;9.60;92.30;;;;;;2073117;28;20030;-69
2021/05/27 03:24:15;;;;;;;6.20;5.60;;;9.60;92.30;;;;;;2073070;28;20570;-69
2021/05/27 03:25:17;;;;;;;7.20;5.20;;;9.60;92.20;;;;;;2081278;28;20527;-69
2021/05/27 03:26:21;;;;;;;6.70;5.65;;;9.60;91.90;;;;;;2080503;28;20037;-69
2021/05/27 03:27:23;;;;;;;6.07;5.35;;;9.60;92.00;;;;;;2081109;28;20189;-68
2021/05/27 03:28:24;;;;;;;5.85;5.25;;;9.50;91.80;;;;;;2073102;28;20071;-69
2021/05/27 03:29:29;;;;;;;6.80;5.13;;;9.60;92.00;;;;;;2073708;28;20040;-68
2021/05/27 03:30:30;;;;;;;6.32;5.10;;;9.60;91.90;;;;;;2073352;28;20022;-68
2021/05/27 03:31:32;;;;;;;7.57;5.35;;;9.60;91.80;;;;;;2073248;28;20096;-69
2021/05/27 03:32:33;;;;;;;7.13;5.75;;;9.60;92.00;;;;;;2081435;28;20804;-69
2021/05/27 03:33:34;;;;;;;5.97;5.22;;;9.60;91.60;;;;;;2081281;28;20037;-69
2021/05/27 03:34:37;;;;;;;6.00;5.40;;;9.60;91.60;;;;;;2081731;28;20590;-69
2021/05/27 03:35:38;;;;;;;6.72;5.70;;;9.60;91.80;;;;;;2081170;28;20116;-69
2021/05/27 03:36:40;;;;;;;6.47;5.22;;;9.70;91.70;;;;;;2080489;28;20029;-69
2021/05/27 03:37:43;;;;;;;6.22;5.63;;;9.60;91.40;;;;;;2085220;28;20021;-68
2021/05/27 03:38:44;;;;;;;8.77;5.90;;;9.60;91.40;;;;;;2075277;28;20417;-68
2021/05/27 03:40:10;;;;;;;9.35;5.50;;;9.60;91.40;;;;;;2081272;28;20116;-69
2021/05/27 03:41:06;;;;;;;6.70;5.80;;;9.60;91.50;;;;;;2081054;28;20029;-68
2021/05/27 03:42:07;;;;;;;6.70;5.70;;;9.60;91.50;;;;;;2081219;28;20028;-69
2021/05/27 03:43:12;;;;;;;6.70;5.75;;;9.60;91.50;;;;;;2081154;28;20037;-68
2021/05/27 03:44:16;;;;;;;9.82;5.70;;;9.60;91.50;;;;;;2081211;28;20029;-70
2021/05/27 03:45:33;;;;;;;9.50;5.78;;;9.60;91.60;;;;;;2073640;28;20517;-70
2021/05/27 03:46:39;;;;;;;6.88;5.28;;;9.60;91.30;;;;;;2074456;28;20485;-69
2021/05/27 03:47:41;;;;;;;7.05;5.82;;;9.70;91.20;;;;;;2072842;28;20057;-70
2021/05/27 03:48:41;;;;;;;8.05;5.38;;;9.70;91.20;;;;;;2080902;28;20765;-68
2021/05/27 03:49:42;;;;;;;8.15;5.32;;;9.70;91.00;;;;;;2081046;28;20113;-69
2021/05/27 03:50:45;;;;;;;6.15;5.53;;;9.80;90.90;;;;;;2081274;28;20036;-70
2021/05/27 03:51:52;;;;;;;5.90;5.30;;;9.80;90.70;;;;;;2073760;28;20037;-70
2021/05/27 03:52:54;;;;;;;5.72;4.97;;;9.80;90.50;;;;;;2081185;28;20092;-70
2021/05/27 03:53:54;;;;;;;6.45;5.68;;;9.90;90.70;;;;;;2080913;28;20060;-71
2021/05/27 03:54:55;;;;;;;6.20;5.28;;;9.90;90.60;;;;;;2080947;28;20121;-70
2021/05/27 03:55:56;;;;;;;8.32;5.40;;;9.90;90.10;;;;;;2080894;28;20021;-70
2021/05/27 03:56:57;;;;;;;5.97;4.97;;;10.00;90.10;;;;;;2089324;28;20483;-69
2021/05/27 03:57:59;;;;;;;5.35;4.85;;;10.00;90.20;;;;;;2080919;28;20116;-68
2021/05/27 04:00:43;;;;;;;6.93;5.40;;;10.10;89.60;;;;;;2081062;28;20021;-69
2021/05/27 04:01:58;;;;;;;5.95;5.13;;;10.10;89.30;;;;;;2076741;28;20029;-69
2021/05/27 04:07:29;;;;;;;6.97;5.00;;;10.30;87.50;;;;;;2089660;28;20071;-69
2021/05/27 04:08:30;;;;;;;6.38;4.90;;;10.30;87.90;;;;;;2080804;28;20548;-68
2021/05/27 04:09:31;;;;;;;5.88;4.60;;;10.30;86.90;;;;;;2077085;28;20034;-69
2021/05/27 04:10:32;;;;;;;5.20;4.45;;;10.40;87.30;;;;;;2072894;28;20026;-69
2021/05/27 04:11:33;;;;;;;5.10;4.60;;;10.50;87.50;;;;;;2073031;28;20040;-70
2021/05/27 04:12:45;;;;;;;6.40;4.70;;;10.50;87.20;;;;;;2081137;28;20097;-69
2021/05/27 04:13:46;;;;;;;6.20;5.18;;;10.50;86.50;;;;;;2090386;28;20036;-69
2021/05/27 04:15:20;;;;;;;4.78;4.25;;;10.50;86.40;;;;;;2090793;28;20028;-69
2021/05/27 04:16:07;;;;;;;4.95;4.45;;;10.60;86.80;;;;;;2089045;28;20799;-69
2021/05/27 04:17:08;;;;;;;5.72;5.00;;;10.60;86.50;;;;;;2090139;28;20029;-70
2021/05/27 04:18:14;;;;;;;5.72;4.78;;;10.60;86.30;;;;;;2089945;28;20348;-69
2021/05/27 04:19:14;;;;;;;6.63;4.78;;;10.60;86.10;;;;;;2081479;28;20060;-69
2021/05/27 04:20:15;;;;;;;7.43;4.78;;;10.60;86.40;;;;;;2081291;28;20060;-69
2021/05/27 04:21:18;;;;;;;6.57;4.57;;;10.60;86.50;;;;;;2089289;28;20123;-69
2021/05/27 04:22:19;;;;;;;6.93;5.18;;;10.60;86.70;;;;;;2081059;28;20419;-69
2021/05/27 04:23:37;;;;;;;6.53;5.13;;;10.60;86.80;;;;;;2081120;28;20064;-68
2021/05/27 04:24:37;;;;;;;7.45;5.18;;;10.60;86.30;;;;;;2089506;28;20029;-68
2021/05/27 04:25:39;;;;;;;8.93;5.15;;;10.50;86.50;;;;;;2081207;28;20100;-68
2021/05/27 04:26:40;;;;;;;8.85;5.25;;;10.50;86.60;;;;;;2080750;28;20440;-68
2021/05/27 04:27:41;;;;;;;6.90;5.25;;;10.40;86.90;;;;;;2080666;28;20037;-72
2021/05/27 04:28:44;;;;;;;8.48;5.40;;;10.50;87.70;;;;;;2081432;28;20109;-69
2021/05/27 04:29:44;;;;;;;6.38;5.07;;;10.40;87.40;;;;;;2090370;28;20025;-71
2021/05/27 04:32:05;;;;;;;7.85;5.55;;;10.50;87.50;;;;;;2090743;28;20021;-69
2021/05/27 04:33:09;;;;;;;7.55;5.15;;;10.50;87.10;;;;;;2082498;28;20021;-70
2021/05/27 04:34:09;;;;;;;9.50;5.38;;;10.50;86.80;;;;;;2082874;28;20033;-69
2021/05/27 04:35:10;;;;;;;10.10;5.40;;;10.60;87.00;;;;;;2091748;28;20051;-69
2021/05/27 04:36:12;;;;;;;7.53;5.15;;;10.60;86.70;;;;;;2089739;28;20061;-70
2021/05/27 04:37:13;;;;;;;6.50;4.80;;;10.70;86.00;;;;;;2081566;28;20076;-69
2021/05/27 04:38:16;;;;;;;7.03;4.90;;;10.80;85.90;;;;;;2075326;28;20445;-70
2021/05/27 04:39:17;;;;;;;6.70;4.80;;;10.90;85.40;;;;;;2082395;28;20026;-69
2021/05/27 04:40:19;;;;;;;8.00;4.93;;;10.90;84.10;;;;;;2090990;28;20029;-69
2021/05/27 04:41:21;;;;;;;7.65;4.90;;;10.90;84.30;;;;;;2090158;28;20075;-69
2021/05/27 04:42:22;;;;;;;6.15;5.05;;;10.90;85.10;;;;;;2089638;28;20041;-68
2021/05/27 04:43:23;;;;;;;7.57;4.88;;;10.90;84.80;;;;;;2081061;28;20059;-68
2021/05/27 04:44:24;;;;;;;8.85;5.78;;;10.90;84.70;;;;;;2072801;28;20054;-69
2021/05/27 04:45:25;;;;;;;9.60;5.28;;;10.90;85.10;;;;;;2080871;28;20528;-68
2021/05/27 04:46:25;;;;;;;8.48;4.95;;;10.90;84.30;;;;;;2088081;28;20056;-70
2021/05/27 04:47:26;;;;;;;6.28;5.60;;;10.90;85.30;;;;;;2080869;28;20030;-70
2021/05/27 04:48:27;;;;;;;7.47;4.90;;;10.90;84.60;;;;;;2080754;28;20025;-70
2021/05/27 04:49:27;;;;;;;6.53;4.75;;;10.90;85.40;;;;;;2089704;28;20405;-69
2021/05/27 04:50:28;;;;;;;6.05;4.90;;;11.00;84.60;;;;;;2080751;28;20527;-68
2021/05/27 04:51:29;;;;;;;9.35;4.60;;;10.90;84.10;;;;;;2080808;28;20443;-69
2021/05/27 04:52:29;;;;;;;9.57;4.63;;;11.00;84.10;;;;;;2089567;28;20053;-70
2021/05/27 04:53:30;;;;;;;7.15;4.53;;;11.00;83.80;;;;;;2080772;28;20651;-70
2021/05/27 04:54:31;;;;;;;6.03;4.50;;;11.00;83.80;;;;;;2072672;28;20112;-69
2021/05/27 04:55:31;;;;;;;8.52;4.78;;;11.10;84.00;;;;;;2080711;28;20029;-70
2021/05/27 04:56:32;;;;;;;9.23;5.40;;;11.00;84.20;;;;;;2088865;28;20040;-70
2021/05/27 04:57:33;;;;;;;6.68;4.45;;;11.10;84.20;;;;;;2080905;28;20025;-69
2021/05/27 04:58:33;;;;;;;31.90;6.13;;;11.10;83.70;;;;;;2080760;28;20029;-69
2021/05/27 04:59:34;;;;;;;6.05;4.95;;;11.10;84.10;;;;;;2089346;28;20067;-71
2021/05/27 05:00:35;;;;;;;7.45;4.60;;;11.20;83.90;;;;;;2089042;28;20031;-69
2021/05/27 05:01:37;;;;;;;8.65;5.00;;;11.20;83.90;;;;;;2080526;28;20033;-71
2021/05/27 05:02:38;;;;;;;9.48;4.70;;;11.10;84.40;;;;;;2080471;28;20033;-69
2021/05/27 05:03:39;;;;;;;5.78;4.72;;;11.20;83.90;;;;;;2081151;28;20021;-70
2021/05/27 05:04:39;;;;;;;7.95;4.90;;;11.10;84.00;;;;;;2089445;28;20028;-69
2021/05/27 05:05:40;;;;;;;6.72;4.70;;;11.10;84.60;;;;;;2089558;28;20033;-71
2021/05/27 05:06:42;;;;;;;5.65;5.03;;;11.10;84.00;;;;;;2088779;28;20487;-69
2021/05/27 05:07:44;;;;;;;7.15;4.75;;;11.00;84.00;;;;;;2080829;28;20022;-72
2021/05/27 05:08:44;;;;;;;6.43;4.50;;;11.00;84.50;;;;;;2080605;28;20096;-70
2021/05/27 05:09:45;;;;;;;7.85;4.70;;;11.00;84.20;;;;;;2088855;28;20480;-70
2021/05/27 05:10:46;;;;;;;6.85;4.88;;;11.00;84.20;;;;;;2089434;28;20021;-69
2021/05/27 05:11:47;;;;;;;5.72;4.75;;;11.00;84.20;;;;;;2072321;28;20572;-69
2021/05/27 05:12:51;;;;;;;5.63;4.97;;;11.00;85.20;;;;;;2072099;28;20033;-70
2021/05/27 05:13:52;;;;;;;5.28;4.65;;;11.00;85.30;;;;;;2088576;28;20028;-69
2021/05/27 05:14:53;;;;;;;6.40;5.10;;;11.00;84.40;;;;;;2088738;28;20051;-67
2021/05/27 05:15:53;;;;;;;8.07;5.30;;;11.00;84.50;;;;;;2089175;28;20136;-68
2021/05/27 05:16:54;;;;;;;7.70;5.57;;;11.00;85.10;;;;;;2079421;28;20080;-68
2021/05/27 05:17:57;;;;;;;6.55;5.53;;;11.00;85.00;;;;;;2080513;28;20034;-69
2021/05/27 05:18:57;;;;;;;8.75;4.97;;;11.00;85.10;;;;;;2088128;28;20474;-69
2021/05/27 05:19:58;;;;;;;7.80;5.38;;;11.00;84.80;;;;;;2089276;28;20033;-69
2021/05/27 05:20:58;;;;;;;9.70;5.05;;;11.00;85.00;;;;;;2080468;28;20110;-69
2021/05/27 05:21:59;;;;;;;6.57;5.05;;;11.00;84.80;;;;;;2080540;28;20068;-68
2021/05/27 05:23:01;;;;;;;9.85;5.18;;;11.00;84.60;;;;;;2089285;28;20029;-68
2021/05/27 05:24:01;;;;;;;8.55;5.10;;;11.10;85.20;;;;;;2089550;28;20101;-68
2021/05/27 05:25:02;;;;;;;7.32;4.90;;;11.10;85.40;;;;;;2088501;28;20032;-68
2021/05/27 05:26:03;;;;;;;5.90;5.10;;;11.10;85.30;;;;;;2088291;28;20083;-68
2021/05/27 05:27:04;;;;;;;5.45;4.82;;;11.10;84.20;;;;;;2088556;28;20035;-68
2021/05/27 05:28:05;;;;;;;7.20;5.38;;;11.20;84.70;;;;;;2089269;28;20516;-69
2021/05/27 05:29:06;;;;;;;8.02;5.32;;;11.20;84.50;;;;;;2089361;28;20048;-70
2021/05/27 05:30:08;;;;;;;7.00;5.13;;;11.20;84.50;;;;;;2080735;28;20021;-69
2021/05/27 05:31:08;;;;;;;11.40;5.65;;;11.20;84.80;;;;;;2080381;28;20026;-68
2021/05/27 05:32:09;;;;;;;6.85;5.18;;;11.20;84.80;;;;;;2088738;28;20041;-69
2021/05/27 05:33:10;;;;;;;5.97;5.20;;;11.30;84.60;;;;;;2089276;28;20029;-69
2021/05/27 05:34:10;;;;;;;5.97;4.90;;;11.30;84.70;;;;;;2089357;28;20028;-68
2021/05/27 05:35:14;;;;;;;5.80;4.88;;;11.30;84.30;;;;;;2089375;28;20075;-69
2021/05/27 05:36:14;;;;;;;7.68;5.30;;;11.30;84.30;;;;;;2087826;28;20099;-68
2021/05/27 05:37:15;;;;;;;6.65;5.25;;;11.40;84.40;;;;;;2088940;28;20029;-69
2021/05/27 05:38:16;;;;;;;10.88;5.78;;;11.40;84.20;;;;;;2089208;28;20112;-69